Terminal Aerodrome Forecast
Issued by NWS

Home | Current Version | Previous Version | Text Only | Print | Product List | Glossary On
Versions: 1 2 3 4 5 6 7 8 9 10 11 12
000
FTUS46 KSGX 242332
TAFTRM
TAF
KTRM 242332Z 2500/2524 14008KT P6SM SCT150
     FM250100 VRB06KT P6SM FEW200
     FM250500 33013KT P6SM FEW200
     FM251200 32007KT P6SM FEW200=

USA.gov is the U.S. government's official web portal to all federal, state and local government web resources and services.